sensor_id;sensor_type;location;lat;lon;timestamp;pressure;altitude;pressure_sealevel;temperature;humidity
30081;BME280;16902;50.816;12.828;2023-04-08T00:01:07;98029.19;;;2.92;100.00
30081;BME280;16902;50.816;12.828;2023-04-08T00:06:09;98027.56;;;2.91;100.00
30081;BME280;16902;50.816;12.828;2023-04-08T00:11:11;98023.59;;;2.87;100.00
30081;BME280;16902;50.816;12.828;2023-04-08T00:16:12;98026.84;;;2.89;100.00
30081;BME280;16902;50.816;12.828;2023-04-08T00:21:14;98030.16;;;2.79;100.00
30081;BME280;16902;50.816;12.828;2023-04-08T00:26:21;98025.53;;;2.73;100.00
30081;BME280;16902;50.816;12.828;2023-04-08T00:31:22;98023.19;;;2.70;100.00
30081;BME280;16902;50.816;12.828;2023-04-08T00:36:24;98031.97;;;2.68;100.00
30081;BME280;16902;50.816;12.828;2023-04-08T00:41:28;98025.09;;;2.68;100.00
30081;BME280;16902;50.816;12.828;2023-04-08T00:46:30;98035.94;;;2.72;100.00
30081;BME280;16902;50.816;12.828;2023-04-08T00:51:36;98030.31;;;2.78;100.00
30081;BME280;16902;50.816;12.828;2023-04-08T00:56:38;98023.59;;;2.87;100.00
30081;BME280;16902;50.816;12.828;2023-04-08T01:01:50;98031.50;;;2.95;100.00
30081;BME280;16902;50.816;12.828;2023-04-08T01:07:17;98035.00;;;2.94;100.00
30081;BME280;16902;50.816;12.828;2023-04-08T01:12:24;98037.91;;;3.00;100.00
30081;BME280;16902;50.816;12.828;2023-04-08T01:17:30;98031.56;;;3.04;100.00
30081;BME280;16902;50.816;12.828;2023-04-08T01:28:06;98032.78;;;3.00;100.00
30081;BME280;16902;50.816;12.828;2023-04-08T01:33:12;98036.53;;;2.96;100.00
30081;BME280;16902;50.816;12.828;2023-04-08T01:38:17;98030.44;;;2.97;100.00
30081;BME280;16902;50.816;12.828;2023-04-08T01:43:21;98035.75;;;2.84;100.00
30081;BME280;16902;50.816;12.828;2023-04-08T01:48:24;98033.88;;;2.87;100.00
30081;BME280;16902;50.816;12.828;2023-04-08T01:53:26;98025.91;;;2.90;100.00
30081;BME280;16902;50.816;12.828;2023-04-08T01:58:31;98028.69;;;2.98;100.00
30081;BME280;16902;50.816;12.828;2023-04-08T02:03:37;98026.88;;;3.09;100.00
30081;BME280;16902;50.816;12.828;2023-04-08T02:08:42;98022.66;;;3.08;100.00
30081;BME280;16902;50.816;12.828;2023-04-08T02:13:44;98022.53;;;3.10;100.00
30081;BME280;16902;50.816;12.828;2023-04-08T02:19:14;98026.38;;;3.16;100.00
30081;BME280;16902;50.816;12.828;2023-04-08T02:24:19;98018.28;;;3.20;100.00
30081;BME280;16902;50.816;12.828;2023-04-08T02:29:22;98023.84;;;3.25;100.00
30081;BME280;16902;50.816;12.828;2023-04-08T02:34:29;98025.59;;;3.25;100.00
30081;BME280;16902;50.816;12.828;2023-04-08T02:39:31;98027.78;;;3.08;100.00
30081;BME280;16902;50.816;12.828;2023-04-08T02:44:33;98021.84;;;3.08;100.00
30081;BME280;16902;50.816;12.828;2023-04-08T02:49:37;98017.03;;;3.15;100.00
30081;BME280;16902;50.816;12.828;2023-04-08T02:54:38;98021.09;;;3.17;100.00
30081;BME280;16902;50.816;12.828;2023-04-08T02:59:40;98032.31;;;3.16;100.00
30081;BME280;16902;50.816;12.828;2023-04-08T03:04:42;98026.81;;;3.21;100.00
30081;BME280;16902;50.816;12.828;2023-04-08T03:09:44;98028.03;;;3.26;100.00
30081;BME280;16902;50.816;12.828;2023-04-08T03:14:46;98030.75;;;3.25;100.00
30081;BME280;16902;50.816;12.828;2023-04-08T03:19:48;98031.00;;;3.22;100.00
30081;BME280;16902;50.816;12.828;2023-04-08T03:24:50;98039.72;;;3.30;100.00
30081;BME280;16902;50.816;12.828;2023-04-08T03:29:52;98039.00;;;3.28;100.00
30081;BME280;16902;50.816;12.828;2023-04-08T03:34:54;98040.22;;;3.24;100.00
30081;BME280;16902;50.816;12.828;2023-04-08T03:39:56;98043.25;;;3.29;100.00
30081;BME280;16902;50.816;12.828;2023-04-08T03:44:58;98046.19;;;3.25;100.00
30081;BME280;16902;50.816;12.828;2023-04-08T03:50:00;98044.16;;;3.28;100.00
30081;BME280;16902;50.816;12.828;2023-04-08T03:55:02;98054.00;;;3.23;100.00
30081;BME280;16902;50.816;12.828;2023-04-08T04:00:05;98055.09;;;3.21;100.00
30081;BME280;16902;50.816;12.828;2023-04-08T04:05:12;98060.75;;;3.15;100.00
30081;BME280;16902;50.816;12.828;2023-04-08T04:10:14;98066.56;;;3.17;100.00
30081;BME280;16902;50.816;12.828;2023-04-08T04:15:16;98069.81;;;3.19;100.00
30081;BME280;16902;50.816;12.828;2023-04-08T04:20:18;98058.78;;;3.28;100.00
30081;BME280;16902;50.816;12.828;2023-04-08T04:25:20;98058.34;;;3.23;100.00
30081;BME280;16902;50.816;12.828;2023-04-08T04:30:22;98062.44;;;3.25;100.00
30081;BME280;16902;50.816;12.828;2023-04-08T04:35:24;98073.03;;;3.32;100.00
30081;BME280;16902;50.816;12.828;2023-04-08T04:40:26;98066.63;;;3.26;100.00
30081;BME280;16902;50.816;12.828;2023-04-08T04:45:28;98074.94;;;3.30;100.00
30081;BME280;16902;50.816;12.828;2023-04-08T04:50:30;98078.81;;;3.24;100.00
30081;BME280;16902;50.816;12.828;2023-04-08T04:55:32;98086.53;;;3.24;100.00
30081;BME280;16902;50.816;12.828;2023-04-08T05:00:34;98090.97;;;3.22;100.00
30081;BME280;16902;50.816;12.828;2023-04-08T05:05:35;98083.47;;;3.30;100.00
30081;BME280;16902;50.816;12.828;2023-04-08T05:10:39;98091.09;;;3.42;100.00
30081;BME280;16902;50.816;12.828;2023-04-08T05:15:41;98089.03;;;3.35;100.00
30081;BME280;16902;50.816;12.828;2023-04-08T05:20:44;98099.34;;;3.35;100.00
30081;BME280;16902;50.816;12.828;2023-04-08T05:25:47;98101.72;;;3.48;100.00
30081;BME280;16902;50.816;12.828;2023-04-08T05:30:49;98106.09;;;3.57;100.00
30081;BME280;16902;50.816;12.828;2023-04-08T05:35:52;98114.72;;;3.47;100.00
30081;BME280;16902;50.816;12.828;2023-04-08T05:40:53;98115.13;;;3.52;100.00
30081;BME280;16902;50.816;12.828;2023-04-08T05:45:56;98114.13;;;3.43;100.00
30081;BME280;16902;50.816;12.828;2023-04-08T05:50:58;98112.03;;;3.48;100.00
30081;BME280;16902;50.816;12.828;2023-04-08T05:55:59;98106.16;;;3.46;100.00
30081;BME280;16902;50.816;12.828;2023-04-08T06:01:01;98113.81;;;3.57;100.00
30081;BME280;16902;50.816;12.828;2023-04-08T06:06:03;98112.44;;;3.74;100.00
30081;BME280;16902;50.816;12.828;2023-04-08T06:11:06;98123.78;;;3.72;100.00
30081;BME280;16902;50.816;12.828;2023-04-08T06:16:12;98132.09;;;3.54;100.00
30081;BME280;16902;50.816;12.828;2023-04-08T06:21:14;98140.44;;;3.47;100.00
30081;BME280;16902;50.816;12.828;2023-04-08T06:26:16;98144.84;;;3.56;100.00
30081;BME280;16902;50.816;12.828;2023-04-08T06:31:18;98155.38;;;3.53;100.00
30081;BME280;16902;50.816;12.828;2023-04-08T06:36:20;98161.22;;;3.55;100.00
30081;BME280;16902;50.816;12.828;2023-04-08T06:41:22;98159.66;;;3.64;100.00
30081;BME280;16902;50.816;12.828;2023-04-08T06:46:24;98158.72;;;3.65;100.00
30081;BME280;16902;50.816;12.828;2023-04-08T06:51:27;98163.72;;;3.66;100.00
30081;BME280;16902;50.816;12.828;2023-04-08T06:56:29;98159.84;;;3.72;100.00
30081;BME280;16902;50.816;12.828;2023-04-08T07:01:30;98165.19;;;3.80;100.00
30081;BME280;16902;50.816;12.828;2023-04-08T07:06:32;98169.00;;;3.85;100.00
30081;BME280;16902;50.816;12.828;2023-04-08T07:11:34;98172.16;;;3.89;100.00
30081;BME280;16902;50.816;12.828;2023-04-08T07:16:36;98173.38;;;3.95;100.00
30081;BME280;16902;50.816;12.828;2023-04-08T07:21:38;98175.13;;;4.15;100.00
30081;BME280;16902;50.816;12.828;2023-04-08T07:26:40;98178.97;;;4.21;100.00
30081;BME280;16902;50.816;12.828;2023-04-08T07:31:42;98171.00;;;4.33;100.00
30081;BME280;16902;50.816;12.828;2023-04-08T07:36:45;98187.53;;;4.31;100.00
30081;BME280;16902;50.816;12.828;2023-04-08T07:41:46;98182.88;;;4.25;100.00
30081;BME280;16902;50.816;12.828;2023-04-08T07:46:48;98194.84;;;4.26;100.00
30081;BME280;16902;50.816;12.828;2023-04-08T07:51:52;98198.53;;;4.02;100.00
30081;BME280;16902;50.816;12.828;2023-04-08T07:56:54;98201.41;;;4.09;100.00
30081;BME280;16902;50.816;12.828;2023-04-08T08:01:56;98208.13;;;4.21;100.00
30081;BME280;16902;50.816;12.828;2023-04-08T08:06:58;98201.50;;;4.28;100.00
30081;BME280;16902;50.816;12.828;2023-04-08T08:12:00;98209.13;;;4.39;100.00
30081;BME280;16902;50.816;12.828;2023-04-08T08:17:02;98210.88;;;4.39;100.00
30081;BME280;16902;50.816;12.828;2023-04-08T08:22:04;98217.00;;;4.38;100.00
30081;BME280;16902;50.816;12.828;2023-04-08T08:27:09;98228.16;;;4.48;100.00
30081;BME280;16902;50.816;12.828;2023-04-08T08:32:11;98227.38;;;4.57;100.00
30081;BME280;16902;50.816;12.828;2023-04-08T08:37:13;98242.28;;;4.54;100.00
30081;BME280;16902;50.816;12.828;2023-04-08T08:42:22;98233.63;;;4.55;100.00
30081;BME280;16902;50.816;12.828;2023-04-08T08:47:24;98241.41;;;4.64;100.00
30081;BME280;16902;50.816;12.828;2023-04-08T08:52:26;98246.22;;;4.79;100.00
30081;BME280;16902;50.816;12.828;2023-04-08T08:57:31;98247.69;;;4.81;100.00
30081;BME280;16902;50.816;12.828;2023-04-08T09:02:33;98263.56;;;4.77;100.00
30081;BME280;16902;50.816;12.828;2023-04-08T09:07:39;98255.88;;;4.96;100.00
30081;BME280;16902;50.816;12.828;2023-04-08T09:12:53;98263.81;;;5.14;100.00
30081;BME280;16902;50.816;12.828;2023-04-08T09:17:56;98267.22;;;5.24;100.00
30081;BME280;16902;50.816;12.828;2023-04-08T09:23:01;98276.63;;;5.45;100.00
30081;BME280;16902;50.816;12.828;2023-04-08T09:28:03;98278.13;;;5.86;100.00
30081;BME280;16902;50.816;12.828;2023-04-08T09:33:06;98280.72;;;5.76;100.00
30081;BME280;16902;50.816;12.828;2023-04-08T09:38:08;98284.22;;;5.75;100.00
30081;BME280;16902;50.816;12.828;2023-04-08T09:43:12;98282.91;;;5.90;100.00
30081;BME280;16902;50.816;12.828;2023-04-08T09:48:17;98283.16;;;6.07;100.00
30081;BME280;16902;50.816;12.828;2023-04-08T09:53:37;98287.13;;;6.01;100.00
30081;BME280;16902;50.816;12.828;2023-04-08T09:58:51;98293.09;;;6.21;100.00
30081;BME280;16902;50.816;12.828;2023-04-08T10:03:55;98289.41;;;6.14;100.00
30081;BME280;16902;50.816;12.828;2023-04-08T10:08:58;98293.75;;;5.84;100.00
30081;BME280;16902;50.816;12.828;2023-04-08T10:14:02;98292.28;;;5.82;100.00
30081;BME280;16902;50.816;12.828;2023-04-08T10:19:36;98297.03;;;6.15;100.00
30081;BME280;16902;50.816;12.828;2023-04-08T10:35:35;98309.44;;;6.02;100.00
30081;BME280;16902;50.816;12.828;2023-04-08T10:40:39;98310.09;;;5.95;100.00
30081;BME280;16902;50.816;12.828;2023-04-08T10:45:43;98310.75;;;5.77;100.00
30081;BME280;16902;50.816;12.828;2023-04-08T10:51:09;98303.16;;;5.66;100.00
30081;BME280;16902;50.816;12.828;2023-04-08T10:56:13;98304.91;;;6.14;100.00
30081;BME280;16902;50.816;12.828;2023-04-08T11:01:17;98312.75;;;6.88;100.00
30081;BME280;16902;50.816;12.828;2023-04-08T11:06:19;98307.88;;;6.85;100.00
30081;BME280;16902;50.816;12.828;2023-04-08T11:11:21;98305.91;;;7.25;100.00
30081;BME280;16902;50.816;12.828;2023-04-08T11:16:30;98313.78;;;8.22;100.00
30081;BME280;16902;50.816;12.828;2023-04-08T11:21:36;98319.06;;;8.82;100.00
30081;BME280;16902;50.816;12.828;2023-04-08T11:26:39;98318.78;;;9.36;100.00
30081;BME280;16902;50.816;12.828;2023-04-08T11:31:42;98330.03;;;7.70;100.00
30081;BME280;16902;50.816;12.828;2023-04-08T11:36:45;98340.56;;;7.14;100.00
30081;BME280;16902;50.816;12.828;2023-04-08T11:41:47;98332.09;;;6.94;100.00
30081;BME280;16902;50.816;12.828;2023-04-08T11:46:51;98341.59;;;6.56;100.00
30081;BME280;16902;50.816;12.828;2023-04-08T11:51:58;98337.63;;;6.62;100.00
30081;BME280;16902;50.816;12.828;2023-04-08T11:57:00;98343.50;;;6.64;100.00
30081;BME280;16902;50.816;12.828;2023-04-08T12:02:03;98338.25;;;6.83;100.00
30081;BME280;16902;50.816;12.828;2023-04-08T12:07:05;98345.50;;;6.70;100.00
30081;BME280;16902;50.816;12.828;2023-04-08T12:12:07;98349.66;;;6.53;100.00
30081;BME280;16902;50.816;12.828;2023-04-08T12:17:09;98352.78;;;6.47;100.00
30081;BME280;16902;50.816;12.828;2023-04-08T12:22:11;98349.63;;;6.63;100.00
30081;BME280;16902;50.816;12.828;2023-04-08T12:27:13;98354.75;;;7.10;100.00
30081;BME280;16902;50.816;12.828;2023-04-08T12:32:15;98355.50;;;7.02;100.00
30081;BME280;16902;50.816;12.828;2023-04-08T12:37:17;98358.31;;;6.62;100.00
30081;BME280;16902;50.816;12.828;2023-04-08T12:42:21;98359.94;;;7.10;100.00
30081;BME280;16902;50.816;12.828;2023-04-08T12:47:23;98369.59;;;7.90;100.00
30081;BME280;16902;50.816;12.828;2023-04-08T12:52:26;98359.22;;;7.90;100.00
30081;BME280;16902;50.816;12.828;2023-04-08T12:57:28;98366.78;;;8.37;100.00
30081;BME280;16902;50.816;12.828;2023-04-08T13:02:32;98361.63;;;8.45;100.00
30081;BME280;16902;50.816;12.828;2023-04-08T13:07:34;98361.97;;;8.42;100.00
30081;BME280;16902;50.816;12.828;2023-04-08T13:12:36;98357.75;;;8.41;100.00
30081;BME280;16902;50.816;12.828;2023-04-08T13:17:40;98352.56;;;8.41;100.00
30081;BME280;16902;50.816;12.828;2023-04-08T13:22:43;98359.72;;;8.30;100.00
30081;BME280;16902;50.816;12.828;2023-04-08T13:27:44;98365.94;;;7.65;100.00
30081;BME280;16902;50.816;12.828;2023-04-08T13:32:47;98361.78;;;7.27;100.00
30081;BME280;16902;50.816;12.828;2023-04-08T13:37:49;98368.16;;;7.33;100.00
30081;BME280;16902;50.816;12.828;2023-04-08T13:42:50;98363.91;;;7.04;100.00
30081;BME280;16902;50.816;12.828;2023-04-08T13:47:53;98362.53;;;7.10;100.00
30081;BME280;16902;50.816;12.828;2023-04-08T13:52:55;98356.47;;;7.01;100.00
30081;BME280;16902;50.816;12.828;2023-04-08T13:57:57;98365.19;;;6.90;100.00
30081;BME280;16902;50.816;12.828;2023-04-08T14:02:59;98356.09;;;6.77;100.00
30081;BME280;16902;50.816;12.828;2023-04-08T14:08:01;98354.53;;;6.56;100.00
30081;BME280;16902;50.816;12.828;2023-04-08T14:13:03;98364.78;;;6.48;100.00
30081;BME280;16902;50.816;12.828;2023-04-08T14:18:05;98366.91;;;6.72;100.00
30081;BME280;16902;50.816;12.828;2023-04-08T14:23:11;98369.75;;;6.79;100.00
30081;BME280;16902;50.816;12.828;2023-04-08T14:28:14;98369.84;;;6.87;100.00
30081;BME280;16902;50.816;12.828;2023-04-08T14:33:16;98368.38;;;6.75;100.00
30081;BME280;16902;50.816;12.828;2023-04-08T14:38:18;98371.38;;;6.70;100.00
30081;BME280;16902;50.816;12.828;2023-04-08T14:43:21;98377.16;;;6.54;100.00
30081;BME280;16902;50.816;12.828;2023-04-08T14:48:23;98373.88;;;6.42;100.00
30081;BME280;16902;50.816;12.828;2023-04-08T14:53:26;98389.28;;;6.25;100.00
30081;BME280;16902;50.816;12.828;2023-04-08T14:58:28;98379.06;;;6.13;100.00
30081;BME280;16902;50.816;12.828;2023-04-08T15:03:31;98382.19;;;6.07;100.00
30081;BME280;16902;50.816;12.828;2023-04-08T15:08:33;98388.88;;;6.00;100.00
30081;BME280;16902;50.816;12.828;2023-04-08T15:13:35;98390.22;;;6.04;100.00
30081;BME280;16902;50.816;12.828;2023-04-08T15:18:37;98399.63;;;6.15;100.00
30081;BME280;16902;50.816;12.828;2023-04-08T15:23:40;98397.06;;;6.15;100.00
30081;BME280;16902;50.816;12.828;2023-04-08T15:28:44;98393.25;;;6.00;100.00
30081;BME280;16902;50.816;12.828;2023-04-08T15:33:45;98396.22;;;5.95;100.00
30081;BME280;16902;50.816;12.828;2023-04-08T15:38:49;98397.31;;;6.02;100.00
30081;BME280;16902;50.816;12.828;2023-04-08T15:43:52;98400.44;;;5.96;100.00
30081;BME280;16902;50.816;12.828;2023-04-08T15:48:54;98407.19;;;5.87;100.00
30081;BME280;16902;50.816;12.828;2023-04-08T15:53:56;98411.72;;;5.95;100.00
30081;BME280;16902;50.816;12.828;2023-04-08T15:58:58;98414.03;;;5.98;100.00
30081;BME280;16902;50.816;12.828;2023-04-08T16:04:00;98411.75;;;6.05;100.00
30081;BME280;16902;50.816;12.828;2023-04-08T16:09:02;98419.91;;;6.10;100.00
30081;BME280;16902;50.816;12.828;2023-04-08T16:14:04;98425.75;;;6.12;100.00
30081;BME280;16902;50.816;12.828;2023-04-08T16:19:06;98431.84;;;5.91;100.00
30081;BME280;16902;50.816;12.828;2023-04-08T16:24:08;98439.56;;;5.82;100.00
30081;BME280;16902;50.816;12.828;2023-04-08T16:29:10;98444.00;;;5.70;100.00
30081;BME280;16902;50.816;12.828;2023-04-08T16:34:12;98452.28;;;5.64;100.00
30081;BME280;16902;50.816;12.828;2023-04-08T16:39:14;98446.84;;;5.67;100.00
30081;BME280;16902;50.816;12.828;2023-04-08T16:44:16;98455.28;;;5.69;100.00
30081;BME280;16902;50.816;12.828;2023-04-08T16:49:17;98465.19;;;5.64;100.00
30081;BME280;16902;50.816;12.828;2023-04-08T16:54:20;98463.91;;;5.49;100.00
30081;BME280;16902;50.816;12.828;2023-04-08T16:59:22;98471.00;;;5.47;100.00
30081;BME280;16902;50.816;12.828;2023-04-08T17:04:24;98478.88;;;5.55;100.00
30081;BME280;16902;50.816;12.828;2023-04-08T17:09:28;98487.34;;;5.57;100.00
30081;BME280;16902;50.816;12.828;2023-04-08T17:14:30;98485.00;;;5.54;100.00
30081;BME280;16902;50.816;12.828;2023-04-08T17:19:32;98493.28;;;5.48;100.00
30081;BME280;16902;50.816;12.828;2023-04-08T17:24:34;98494.56;;;5.32;100.00
30081;BME280;16902;50.816;12.828;2023-04-08T17:29:36;98501.88;;;5.27;100.00
30081;BME280;16902;50.816;12.828;2023-04-08T17:34:38;98510.56;;;5.26;100.00
30081;BME280;16902;50.816;12.828;2023-04-08T17:39:41;98510.94;;;5.22;100.00
30081;BME280;16902;50.816;12.828;2023-04-08T17:44:44;98520.56;;;5.20;100.00
30081;BME280;16902;50.816;12.828;2023-04-08T17:49:46;98523.41;;;5.16;100.00
30081;BME280;16902;50.816;12.828;2023-04-08T17:54:48;98528.25;;;5.10;100.00
30081;BME280;16902;50.816;12.828;2023-04-08T17:59:50;98525.81;;;5.08;100.00
30081;BME280;16902;50.816;12.828;2023-04-08T18:04:52;98528.63;;;5.05;100.00
30081;BME280;16902;50.816;12.828;2023-04-08T18:09:53;98535.75;;;5.13;100.00
30081;BME280;16902;50.816;12.828;2023-04-08T18:14:59;98541.59;;;5.15;100.00
30081;BME280;16902;50.816;12.828;2023-04-08T18:20:00;98544.69;;;5.09;100.00
30081;BME280;16902;50.816;12.828;2023-04-08T18:25:03;98552.47;;;4.98;100.00
30081;BME280;16902;50.816;12.828;2023-04-08T18:30:08;98561.44;;;4.94;100.00
30081;BME280;16902;50.816;12.828;2023-04-08T18:35:10;98562.63;;;4.89;100.00
30081;BME280;16902;50.816;12.828;2023-04-08T18:40:12;98569.19;;;4.82;100.00
30081;BME280;16902;50.816;12.828;2023-04-08T18:45:14;98583.63;;;4.74;100.00
30081;BME280;16902;50.816;12.828;2023-04-08T18:50:16;98571.97;;;4.70;100.00
30081;BME280;16902;50.816;12.828;2023-04-08T18:55:18;98578.06;;;4.57;100.00
30081;BME280;16902;50.816;12.828;2023-04-08T19:00:20;98577.75;;;4.51;100.00
30081;BME280;16902;50.816;12.828;2023-04-08T19:05:22;98587.34;;;4.49;100.00
30081;BME280;16902;50.816;12.828;2023-04-08T19:10:23;98589.94;;;4.49;100.00
30081;BME280;16902;50.816;12.828;2023-04-08T19:15:26;98584.22;;;4.45;100.00
30081;BME280;16902;50.816;12.828;2023-04-08T19:20:29;98589.25;;;4.47;100.00
30081;BME280;16902;50.816;12.828;2023-04-08T19:25:31;98587.38;;;4.37;100.00
30081;BME280;16902;50.816;12.828;2023-04-08T19:30:37;98584.94;;;4.36;100.00
30081;BME280;16902;50.816;12.828;2023-04-08T19:35:39;98590.53;;;4.30;100.00
30081;BME280;16902;50.816;12.828;2023-04-08T19:40:41;98588.44;;;4.35;100.00
30081;BME280;16902;50.816;12.828;2023-04-08T19:45:43;98590.31;;;4.33;100.00
30081;BME280;16902;50.816;12.828;2023-04-08T19:50:45;98594.06;;;4.29;100.00
30081;BME280;16902;50.816;12.828;2023-04-08T19:55:47;98591.50;;;4.29;100.00
30081;BME280;16902;50.816;12.828;2023-04-08T20:00:49;98594.56;;;4.23;100.00
30081;BME280;16902;50.816;12.828;2023-04-08T20:05:51;98593.63;;;4.24;100.00
30081;BME280;16902;50.816;12.828;2023-04-08T20:10:53;98597.34;;;4.20;100.00
30081;BME280;16902;50.816;12.828;2023-04-08T20:15:55;98583.66;;;4.19;100.00
30081;BME280;16902;50.816;12.828;2023-04-08T20:20:57;98592.91;;;4.22;100.00
30081;BME280;16902;50.816;12.828;2023-04-08T20:26:00;98588.31;;;4.25;100.00
30081;BME280;16902;50.816;12.828;2023-04-08T20:31:02;98588.13;;;4.17;100.00
30081;BME280;16902;50.816;12.828;2023-04-08T20:36:05;98597.97;;;3.90;100.00
30081;BME280;16902;50.816;12.828;2023-04-08T20:41:06;98592.88;;;3.43;100.00
30081;BME280;16902;50.816;12.828;2023-04-08T20:46:08;98588.22;;;3.02;100.00
30081;BME280;16902;50.816;12.828;2023-04-08T20:51:11;98591.78;;;2.64;100.00
30081;BME280;16902;50.816;12.828;2023-04-08T20:56:12;98601.09;;;2.41;100.00
30081;BME280;16902;50.816;12.828;2023-04-08T21:01:14;98607.75;;;2.20;100.00
30081;BME280;16902;50.816;12.828;2023-04-08T21:06:17;98610.06;;;1.99;100.00
30081;BME280;16902;50.816;12.828;2023-04-08T21:11:20;98615.16;;;2.12;100.00
30081;BME280;16902;50.816;12.828;2023-04-08T21:16:22;98617.66;;;2.00;100.00
30081;BME280;16902;50.816;12.828;2023-04-08T21:21:24;98622.47;;;1.92;100.00
30081;BME280;16902;50.816;12.828;2023-04-08T21:26:26;98614.78;;;1.92;100.00
30081;BME280;16902;50.816;12.828;2023-04-08T21:31:28;98623.19;;;1.82;100.00
30081;BME280;16902;50.816;12.828;2023-04-08T21:36:31;98613.56;;;1.72;100.00
30081;BME280;16902;50.816;12.828;2023-04-08T21:41:32;98611.19;;;1.57;100.00
30081;BME280;16902;50.816;12.828;2023-04-08T21:46:34;98599.91;;;1.46;100.00
30081;BME280;16902;50.816;12.828;2023-04-08T21:51:36;98603.19;;;1.36;100.00
30081;BME280;16902;50.816;12.828;2023-04-08T21:56:39;98601.59;;;1.20;100.00
30081;BME280;16902;50.816;12.828;2023-04-08T22:01:41;98593.25;;;1.04;100.00
30081;BME280;16902;50.816;12.828;2023-04-08T22:06:44;98598.88;;;0.96;100.00
30081;BME280;16902;50.816;12.828;2023-04-08T22:11:46;98592.69;;;0.86;100.00
30081;BME280;16902;50.816;12.828;2023-04-08T22:16:48;98602.13;;;0.86;100.00
30081;BME280;16902;50.816;12.828;2023-04-08T22:21:50;98591.34;;;0.68;100.00
30081;BME280;16902;50.816;12.828;2023-04-08T22:26:52;98598.50;;;0.75;100.00
30081;BME280;16902;50.816;12.828;2023-04-08T22:31:54;98595.88;;;0.50;100.00
30081;BME280;16902;50.816;12.828;2023-04-08T22:36:56;98603.22;;;0.28;100.00
30081;BME280;16902;50.816;12.828;2023-04-08T22:41:58;98601.88;;;0.08;100.00
30081;BME280;16902;50.816;12.828;2023-04-08T22:47:00;98608.38;;;-0.01;100.00
30081;BME280;16902;50.816;12.828;2023-04-08T22:52:02;98607.94;;;-0.08;100.00
30081;BME280;16902;50.816;12.828;2023-04-08T22:57:04;98607.28;;;-0.26;100.00
30081;BME280;16902;50.816;12.828;2023-04-08T23:02:06;98622.00;;;-0.43;100.00
30081;BME280;16902;50.816;12.828;2023-04-08T23:07:08;98625.97;;;-0.54;100.00
30081;BME280;16902;50.816;12.828;2023-04-08T23:12:10;98627.44;;;-0.49;100.00
30081;BME280;16902;50.816;12.828;2023-04-08T23:17:11;98625.44;;;-0.44;100.00
30081;BME280;16902;50.816;12.828;2023-04-08T23:22:13;98621.34;;;-0.47;100.00
30081;BME280;16902;50.816;12.828;2023-04-08T23:27:15;98627.53;;;-0.51;100.00
30081;BME280;16902;50.816;12.828;2023-04-08T23:32:17;98629.19;;;-0.50;100.00
30081;BME280;16902;50.816;12.828;2023-04-08T23:37:19;98629.81;;;-0.61;100.00
30081;BME280;16902;50.816;12.828;2023-04-08T23:42:21;98624.59;;;-0.59;100.00
30081;BME280;16902;50.816;12.828;2023-04-08T23:47:27;98624.00;;;-0.79;100.00
30081;BME280;16902;50.816;12.828;2023-04-08T23:52:31;98617.97;;;-0.92;100.00
30081;BME280;16902;50.816;12.828;2023-04-08T23:57:33;98619.56;;;-1.05;100.00
